Arrowtown, New Zealand
Current Conditions -  °F | °C
As of 9:00 PM on Sunday 21 Dec 2014 (Local Time) from NZCH Reporting Station
Rain Showers Rain Showers  
Wind Chill: 54°   Ceiling: 2800
Heat Index: 54°   Visibility: 6mi
Dew Point: 52°   Wind: 12mph
Humidity: 94%   Direction: 220°SW
Pressure: 29.94"   Gusts: NA
Location:  44.94°S, 168.83°E
Report Text: NZCH 210900Z AUTO 22010KT 9999 VCSH OVC028/// 12/11 Q1014 TEMPO7000 SHRA BKN014
Loading
Personal Weather Stations






























Interactive Weather Map New forecast layout! Learn more

10-Day Weather Forecast

Advertisements
Track Severe Weather on mobile